Time;durP1;ratioP1;P1;durP2;ratioP2;P2;SDS_P1;SDS_P2;PMS_P1;PMS_P2;Temp;Humidity;BMP_temperature;BMP_pressure;BME280_temperature;BME280_humidity;BME280_pressure;Samples;Min_cycle;Max_cycle;Signal;HPM_P1;HPM_P2
2022/11/19 00:00:48;;;;;;;35.70;21.95;;;;;;;1.63;75.68;100151.27;1627931;88;21262;-59
2022/11/19 00:03:52;;;;;;;38.23;21.48;;;;;;;1.64;75.75;100147.09;1628094;88;21372;-60
2022/11/19 00:06:58;;;;;;;36.17;22.22;;;;;;;1.66;75.72;100159.11;1628013;87;21286;-59
2022/11/19 00:10:04;;;;;;;35.20;20.68;;;;;;;1.55;75.48;100158.13;1622921;88;21368;-60
2022/11/19 00:13:12;;;;;;;38.10;22.48;;;;;;;1.47;75.45;100150.31;1623342;88;21306;-59
2022/11/19 00:16:21;;;;;;;38.20;21.85;;;;;;;1.46;75.60;100131.91;1605457;88;21262;-60
2022/11/19 00:19:28;;;;;;;39.50;22.58;;;;;;;1.46;75.57;100119.78;1596884;88;21271;-60
2022/11/19 00:22:35;;;;;;;37.10;21.27;;;;;;;1.40;75.51;100109.50;1623249;88;21254;-60
2022/11/19 00:25:41;;;;;;;36.10;21.62;;;;;;;1.38;75.62;100104.72;1623239;88;21233;-59
2022/11/19 00:28:48;;;;;;;37.10;20.50;;;;;;;1.41;75.71;100080.70;1623307;88;21298;-60
2022/11/19 00:31:54;;;;;;;34.83;19.23;;;;;;;1.44;75.77;100077.76;1623220;87;21313;-59
2022/11/19 00:35:01;;;;;;;36.60;20.57;;;;;;;1.41;75.75;100070.75;1623119;88;21218;-59
2022/11/19 00:38:07;;;;;;;32.45;20.65;;;;;;;1.37;75.73;100057.66;1623219;87;21210;-59
2022/11/19 00:41:15;;;;;;;36.03;20.02;;;;;;;1.42;75.91;100064.88;1621289;85;21290;-60
2022/11/19 00:44:21;;;;;;;38.28;20.70;;;;;;;1.44;75.90;100065.11;1645166;86;21220;-59
2022/11/19 00:47:27;;;;;;;39.80;22.82;;;;;;;1.41;75.78;100069.41;1617293;88;21339;-58
2022/11/19 00:50:35;;;;;;;34.85;20.02;;;;;;;1.35;75.66;100076.66;1616702;87;21277;-59
2022/11/19 00:53:40;;;;;;;35.75;20.80;;;;;;;1.33;75.77;100043.56;1616808;87;21279;-59
2022/11/19 00:56:47;;;;;;;37.58;20.82;;;;;;;1.33;75.78;100044.91;1615778;87;21258;-59
2022/11/19 00:59:53;;;;;;;35.17;20.65;;;;;;;1.33;75.87;100042.22;1644964;87;21567;-60
2022/11/19 01:03:00;;;;;;;32.67;19.60;;;;;;;1.33;75.89;100032.78;1644204;87;21236;-58
2022/11/19 01:06:07;;;;;;;32.55;18.82;;;;;;;1.35;75.97;100030.82;1644240;87;21228;-59
2022/11/19 01:09:15;;;;;;;32.30;19.60;;;;;;;1.42;76.12;100015.00;1644187;87;21216;-59
2022/11/19 01:12:20;;;;;;;32.63;18.37;;;;;;;1.46;76.12;100013.27;1644230;87;21284;-59
2022/11/19 01:15:26;;;;;;;29.80;18.98;;;;;;;1.48;76.08;100005.91;1644219;87;21232;-59
2022/11/19 01:18:33;;;;;;;33.05;19.27;;;;;;;1.47;76.07;99977.20;1644231;87;21228;-60
2022/11/19 01:21:34;;;;;;;34.58;20.80;;;;;;;1.51;76.16;99977.33;1623953;87;21811;-60
2022/11/19 01:24:41;;;;;;;31.50;19.23;;;;;;;1.52;76.11;99978.20;1644234;87;21248;-59
2022/11/19 01:27:47;;;;;;;37.73;20.95;;;;;;;1.54;76.19;99955.49;1625009;87;21353;-58
2022/11/19 01:30:54;;;;;;;35.38;19.60;;;;;;;1.58;76.22;99953.41;1644506;86;21228;-59
2022/11/19 01:34:00;;;;;;;33.78;19.40;;;;;;;1.57;76.14;99940.05;1644244;86;21224;-59
2022/11/19 01:37:10;;;;;;;30.77;18.92;;;;;;;1.55;76.19;99915.91;1644210;86;21272;-59
2022/11/19 01:40:17;;;;;;;32.83;19.85;;;;;;;1.61;76.30;99896.50;1644325;86;21279;-60
2022/11/19 01:43:22;;;;;;;34.27;19.42;;;;;;;1.65;76.25;99884.95;1645997;83;21243;-59
2022/11/19 01:46:31;;;;;;;34.50;20.05;;;;;;;1.66;76.30;99867.29;1645409;86;21232;-60
2022/11/19 01:49:37;;;;;;;36.85;19.95;;;;;;;1.67;76.24;99869.47;1645435;86;21256;-58
2022/11/19 01:52:43;;;;;;;32.33;19.37;;;;;;;1.68;76.23;99869.86;1645704;86;21264;-60
2022/11/19 01:55:50;;;;;;;34.27;19.05;;;;;;;1.67;76.20;99864.95;1647231;85;21227;-60
2022/11/19 01:59:05;;;;;;;36.38;19.40;;;;;;;1.63;76.04;99870.26;1644262;86;21741;-60
2022/11/19 02:02:11;;;;;;;;;;;;;;;1.56;76.01;99875.80;1647044;86;21232;-59
2022/11/19 02:05:16;;;;;;;29.20;17.32;;;;;;;1.58;76.18;99868.44;1628781;87;20267;-59
2022/11/19 02:08:51;;;;;;;32.90;19.20;;;;;;;1.59;76.20;99872.01;1644643;86;21267;-59
2022/11/19 02:12:36;;;;;;;33.75;19.10;;;;;;;1.51;76.04;99880.25;1644502;86;21295;-59
2022/11/19 02:15:52;;;;;;;28.10;17.70;;;;;;;1.51;76.23;99888.81;1645793;86;21236;-58
2022/11/19 02:19:11;;;;;;;25.65;17.12;;;;;;;1.48;76.22;99873.77;1651329;87;21245;-59
2022/11/19 02:22:59;;;;;;;28.77;18.20;;;;;;;1.51;76.38;99864.06;1653415;87;21259;-61
2022/11/19 02:26:32;;;;;;;30.62;17.77;;;;;;;1.57;76.39;99847.00;1645108;86;21220;-59
2022/11/19 02:30:03;;;;;;;26.40;16.77;;;;;;;1.57;76.43;99830.81;1646216;86;21227;-59
2022/11/19 02:33:20;;;;;;;29.27;17.27;;;;;;;1.54;76.41;99822.00;1644135;86;21268;-60
2022/11/19 02:36:34;;;;;;;27.05;16.52;;;;;;;1.59;76.57;99805.92;1644574;86;21248;-58
2022/11/19 02:39:58;;;;;;;25.80;16.45;;;;;;;1.67;76.70;99801.55;1644268;86;21235;-59
2022/11/19 02:43:32;;;;;;;24.43;15.60;;;;;;;1.67;76.56;99781.81;1645713;83;21385;-58
2022/11/19 02:46:38;;;;;;;27.58;16.52;;;;;;;1.66;76.62;99766.14;1644278;87;21255;-60
2022/11/19 02:49:47;;;;;;;27.07;16.17;;;;;;;1.69;76.65;99752.38;1645020;86;21295;-60
2022/11/19 02:52:53;;;;;;;26.30;16.27;;;;;;;1.72;76.67;99730.52;1647545;85;21293;-60
2022/11/19 02:56:10;;;;;;;25.05;16.27;;;;;;;1.71;76.61;99727.96;1644721;86;21895;-59
2022/11/19 03:06:19;;;;;;;24.85;15.93;;;;;;;1.84;76.75;99756.92;1646028;86;21232;-59
2022/11/19 03:09:25;;;;;;;24.98;14.35;;;;;;;1.84;76.68;99740.21;1644632;86;21228;-58
2022/11/19 03:16:40;;;;;;;22.52;14.03;;;;;;;1.75;76.49;99736.13;1647193;86;21283;-58
2022/11/19 03:20:07;;;;;;;21.90;13.90;;;;;;;1.78;76.74;99727.76;1644348;86;21244;-60
2022/11/19 03:23:32;;;;;;;21.37;13.28;;;;;;;1.83;76.83;99725.02;1644450;87;21324;-59
2022/11/19 03:26:40;;;;;;;19.95;12.40;;;;;;;1.86;76.81;99714.44;1643773;86;21223;-59
2022/11/19 03:29:49;;;;;;;19.02;12.05;;;;;;;1.86;76.84;99703.16;1643900;87;21769;-59
2022/11/19 03:33:13;;;;;;;20.10;12.93;;;;;;;1.91;76.89;99679.81;1645006;86;21350;-59
2022/11/19 03:36:24;;;;;;;19.00;12.37;;;;;;;1.92;76.85;99678.32;1644601;86;21224;-60
2022/11/19 03:39:29;;;;;;;20.62;13.40;;;;;;;1.95;76.92;99664.55;1643791;87;21773;-59
2022/11/19 03:42:35;;;;;;;20.40;12.18;;;;;;;1.93;76.79;99670.60;1647296;85;21272;-59
2022/11/19 03:45:44;;;;;;;18.75;12.65;;;;;;;1.96;76.93;99660.02;1644790;83;21288;-58
2022/11/19 03:48:53;;;;;;;21.40;13.93;;;;;;;2.01;76.96;99651.87;1623328;86;21272;-59
2022/11/19 03:52:05;;;;;;;17.92;12.28;;;;;;;2.04;76.89;99631.83;1641917;87;21376;-59
2022/11/19 03:55:13;;;;;;;18.35;12.05;;;;;;;2.04;76.95;99631.83;1641969;86;21216;-60
2022/11/19 03:58:20;;;;;;;19.02;12.07;;;;;;;2.09;77.04;99625.03;1642402;86;21216;-59
2022/11/19 04:01:27;;;;;;;15.80;10.82;;;;;;;2.11;76.98;99602.78;1643773;86;21236;-58
2022/11/19 04:04:37;;;;;;;16.87;11.15;;;;;;;2.10;76.95;99567.83;1642051;86;21243;-60
2022/11/19 04:07:43;;;;;;;14.65;9.93;;;;;;;2.10;76.85;99566.48;1642637;86;21208;-59
2022/11/19 04:10:50;;;;;;;16.60;10.82;;;;;;;2.03;76.84;99570.24;1642159;87;21196;-59
2022/11/19 04:13:56;;;;;;;15.20;9.95;;;;;;;2.01;76.87;99558.77;1629378;87;21228;-60
2022/11/19 04:17:02;;;;;;;15.93;9.75;;;;;;;1.99;76.97;99561.23;1642159;86;21240;-58
2022/11/19 04:20:08;;;;;;;16.45;10.72;;;;;;;2.02;77.05;99568.55;1644795;87;21205;-59
2022/11/19 04:23:14;;;;;;;16.00;10.25;;;;;;;2.03;77.04;99537.86;1642362;86;21776;-58
2022/11/19 04:26:20;;;;;;;13.48;9.18;;;;;;;2.03;77.08;99554.57;1642595;86;21735;-61
2022/11/19 04:29:27;;;;;;;13.98;9.25;;;;;;;2.03;77.09;99531.62;1642181;87;21260;-59
2022/11/19 04:32:34;;;;;;;14.53;8.85;;;;;;;2.04;77.19;99531.48;1641656;86;21208;-59
2022/11/19 04:35:41;;;;;;;11.93;8.08;;;;;;;2.07;77.26;99522.23;1619804;87;21237;-61
2022/11/19 04:38:48;;;;;;;13.38;8.23;;;;;;;2.09;77.28;99519.77;1617188;88;21259;-60
2022/11/19 04:42:00;;;;;;;11.10;7.50;;;;;;;2.16;77.35;99505.17;1618530;87;21243;-61
2022/11/19 04:45:07;;;;;;;10.60;6.80;;;;;;;2.17;77.35;99504.20;1619730;84;21310;-58
2022/11/19 04:48:15;;;;;;;10.78;6.97;;;;;;;2.20;77.29;99498.50;1626499;88;21326;-61
2022/11/19 04:51:23;;;;;;;9.00;5.67;;;;;;;2.19;77.30;99476.05;1625842;88;21271;-61
2022/11/19 04:54:29;;;;;;;8.50;5.72;;;;;;;2.21;77.37;99470.02;1625983;88;21775;-59
2022/11/19 04:57:35;;;;;;;7.42;5.22;;;;;;;2.23;77.34;99471.22;1626343;88;21324;-58
2022/11/19 05:00:41;;;;;;;8.70;4.97;;;;;;;2.24;77.35;99464.80;1625814;87;21351;-58
2022/11/19 05:03:47;;;;;;;8.23;4.62;;;;;;;2.27;77.46;99448.31;1625656;87;21265;-60
2022/11/19 05:06:53;;;;;;;8.73;5.83;;;;;;;2.27;77.37;99442.91;1625145;87;21235;-61
2022/11/19 05:10:00;;;;;;;9.55;5.92;;;;;;;2.25;77.33;99430.91;1626076;88;21295;-60
2022/11/19 05:13:09;;;;;;;11.50;6.60;;;;;;;2.22;77.33;99431.21;1626562;87;21307;-60
2022/11/19 05:16:16;;;;;;;8.68;6.12;;;;;;;2.24;77.46;99416.22;1626491;88;21270;-58
2022/11/19 05:19:24;;;;;;;32.80;14.75;;;;;;;2.30;77.59;99424.58;1629243;88;21223;-60
2022/11/19 05:22:31;;;;;;;12.33;8.05;;;;;;;2.34;77.61;99407.10;1626153;87;21369;-60
2022/11/19 05:25:38;;;;;;;10.50;7.10;;;;;;;2.33;77.53;99440.48;1626257;88;21238;-60
2022/11/19 05:28:45;;;;;;;8.23;5.67;;;;;;;2.33;77.54;99429.68;1626027;88;21279;-61
2022/11/19 05:31:53;;;;;;;8.90;6.05;;;;;;;2.38;77.63;99427.92;1626217;88;21251;-59
2022/11/19 05:35:00;;;;;;;14.05;9.45;;;;;;;2.36;77.54;99390.75;1625809;87;21223;-59
2022/11/19 05:38:07;;;;;;;10.10;6.47;;;;;;;2.34;77.55;99390.04;1626100;87;21247;-59
2022/11/19 05:41:14;;;;;;;9.25;6.55;;;;;;;2.36;77.60;99401.55;1625638;88;21242;-59
2022/11/19 05:44:20;;;;;;;10.43;7.05;;;;;;;2.35;77.66;99397.13;1625547;88;21227;-59
2022/11/19 05:47:27;;;;;;;8.75;6.00;;;;;;;2.41;77.78;99372.27;1626896;85;21292;-59
2022/11/19 05:50:39;;;;;;;10.60;7.37;;;;;;;2.47;77.87;99371.66;1626520;88;21291;-59
2022/11/19 05:53:45;;;;;;;7.50;5.27;;;;;;;2.50;77.81;99380.80;1626034;88;21377;-59
2022/11/19 05:56:51;;;;;;;9.38;5.70;;;;;;;2.52;77.87;99372.06;1625546;87;21258;-59
2022/11/19 05:59:59;;;;;;;8.40;5.65;;;;;;;2.51;77.80;99373.91;1625330;88;21230;-58
2022/11/19 06:03:05;;;;;;;7.10;5.12;;;;;;;2.53;77.89;99372.41;1625570;87;21231;-59
2022/11/19 06:06:11;;;;;;;7.17;5.05;;;;;;;2.58;77.94;99372.80;1626871;87;21227;-60
2022/11/19 06:09:17;;;;;;;6.50;4.33;;;;;;;2.62;77.95;99372.84;1612976;88;21776;-59
2022/11/19 06:12:24;;;;;;;8.10;5.25;;;;;;;2.63;77.95;99373.22;1626340;88;21243;-61
2022/11/19 06:15:31;;;;;;;8.28;5.42;;;;;;;2.68;78.03;99369.04;1626466;87;21247;-60
2022/11/19 06:18:36;;;;;;;9.53;4.95;;;;;;;2.69;78.01;99355.91;1625926;87;21247;-60
2022/11/19 06:21:43;;;;;;;7.10;4.10;;;;;;;2.76;78.12;99348.88;1629521;87;21235;-60
2022/11/19 06:24:51;;;;;;;9.00;4.85;;;;;;;2.83;78.19;99354.03;1625564;88;21223;-60
2022/11/19 06:27:57;;;;;;;7.25;4.65;;;;;;;2.89;78.17;99360.17;1626133;87;21234;-61
2022/11/19 06:31:03;;;;;;;6.83;4.10;;;;;;;2.91;78.12;99358.17;1626273;88;21377;-60
2022/11/19 06:34:11;;;;;;;7.55;4.28;;;;;;;2.97;78.16;99340.48;1626630;87;21251;-60
2022/11/19 06:37:17;;;;;;;6.80;4.30;;;;;;;3.01;78.18;99336.48;1626811;87;21408;-59
2022/11/19 06:40:25;;;;;;;7.95;4.15;;;;;;;3.04;78.15;99343.76;1626181;88;21404;-59
2022/11/19 06:43:32;;;;;;;8.38;4.58;;;;;;;3.08;78.18;99341.11;1625501;87;21239;-60
2022/11/19 06:46:40;;;;;;;7.62;4.10;;;;;;;3.15;78.23;99313.45;1626193;88;21243;-60
2022/11/19 06:49:47;;;;;;;7.92;4.50;;;;;;;3.19;78.18;99317.04;1580303;90;21385;-60
2022/11/19 06:52:48;;;;;;;7.67;4.65;;;;;;;3.20;78.18;99328.22;1580119;89;21231;-59
2022/11/19 06:55:41;;;;;;;7.53;3.80;;;;;;;3.23;78.16;99336.02;1579967;90;21247;-59
2022/11/19 06:58:48;;;;;;;6.83;3.95;;;;;;;3.26;78.17;99326.73;1580396;91;21346;-60
2022/11/19 07:01:55;;;;;;;9.60;4.67;;;;;;;3.28;78.13;99322.89;1580866;89;21234;-60
2022/11/19 07:05:04;;;;;;;8.60;4.33;;;;;;;3.30;78.17;99333.55;1580898;89;21231;-59
2022/11/19 07:08:09;;;;;;;9.23;4.20;;;;;;;3.35;78.23;99327.14;1580645;90;21230;-59
2022/11/19 07:11:26;;;;;;;6.92;3.92;;;;;;;3.41;78.28;99311.66;1580357;89;21266;-61
2022/11/19 07:14:33;;;;;;;6.22;3.72;;;;;;;3.47;78.38;99320.01;1580016;90;21227;-61
2022/11/19 07:17:41;;;;;;;7.12;3.20;;;;;;;3.51;78.33;99314.61;1580424;90;21247;-61
2022/11/19 07:20:52;;;;;;;6.40;3.90;;;;;;;3.53;78.26;99327.48;1580560;90;21255;-59
2022/11/19 07:23:58;;;;;;;6.30;3.27;;;;;;;3.57;78.31;99325.33;1565621;90;21263;-60
2022/11/19 07:27:07;;;;;;;5.58;2.83;;;;;;;3.62;78.32;99326.53;1580347;89;21282;-59
2022/11/19 07:30:18;;;;;;;6.55;3.42;;;;;;;3.65;78.30;99318.09;1566523;90;21231;-59
2022/11/19 07:33:24;;;;;;;8.18;3.83;;;;;;;3.67;78.28;99296.29;1580142;89;21227;-59
2022/11/19 07:36:31;;;;;;;4.37;2.85;;;;;;;3.65;78.20;99293.75;1580130;90;21392;-61
2022/11/19 07:39:36;;;;;;;4.83;2.35;;;;;;;3.66;78.27;99292.76;1565234;89;21286;-59
2022/11/19 07:42:49;;;;;;;5.28;2.77;;;;;;;3.71;78.32;99289.05;1580404;91;21238;-60
2022/11/19 07:45:59;;;;;;;6.60;2.95;;;;;;;3.77;78.41;99291.14;1580380;89;21431;-63
2022/11/19 07:49:06;;;;;;;4.25;2.50;;;;;;;3.82;78.44;99294.19;1596248;85;21385;-60
2022/11/19 07:52:12;;;;;;;4.97;2.72;;;;;;;3.89;78.47;99292.55;1627078;88;21381;-60
2022/11/19 07:55:19;;;;;;;4.83;2.60;;;;;;;3.96;78.55;99297.68;1626645;87;21311;-61
2022/11/19 07:58:25;;;;;;;4.42;2.40;;;;;;;4.01;78.47;99275.01;1628294;88;21231;-59
2022/11/19 08:01:31;;;;;;;4.53;2.62;;;;;;;4.03;78.47;99273.00;1613230;88;21235;-59
2022/11/19 08:04:38;;;;;;;4.58;2.05;;;;;;;4.05;78.40;99273.69;1632477;85;21220;-60
2022/11/19 08:07:46;;;;;;;5.05;2.72;;;;;;;4.03;78.33;99277.06;1604042;88;21321;-59
2022/11/19 08:10:54;;;;;;;3.98;2.33;;;;;;;4.06;78.45;99274.02;1617268;88;21248;-60
2022/11/19 08:14:03;;;;;;;6.55;2.35;;;;;;;4.12;78.51;99273.38;1617196;89;21244;-60
2022/11/19 08:20:32;;;;;;;3.35;2.47;;;;;;;4.26;78.63;99272.78;1592411;89;21279;-59
2022/11/19 08:23:38;;;;;;;3.05;1.92;;;;;;;4.36;78.77;99258.58;1617058;88;21229;-60
2022/11/19 08:26:46;;;;;;;3.35;2.20;;;;;;;4.43;78.75;99244.73;1616586;87;21687;-60
2022/11/19 08:29:52;;;;;;;2.85;2.35;;;;;;;4.50;78.77;99228.14;1616673;89;21445;-60
2022/11/19 08:32:59;;;;;;;3.45;2.30;;;;;;;4.59;78.82;99231.73;1591433;90;21274;-59
2022/11/19 08:36:06;;;;;;;2.95;2.00;;;;;;;4.62;78.67;99231.39;1591111;89;21320;-59
2022/11/19 08:39:19;;;;;;;3.52;2.35;;;;;;;4.67;78.66;99232.24;1616194;88;21245;-59
2022/11/19 08:45:47;;;;;;;6.22;3.20;;;;;;;4.74;78.64;99219.20;1575965;91;20271;-59
2022/11/19 08:48:54;;;;;;;3.47;2.20;;;;;;;4.84;78.81;99206.84;1555558;91;21309;-60
2022/11/19 08:52:03;;;;;;;2.85;1.90;;;;;;;4.93;78.85;99206.68;1547692;92;21306;-60
2022/11/19 08:55:09;;;;;;;5.70;3.02;;;;;;;5.01;78.83;99201.26;1561599;92;21245;-60
2022/11/19 08:58:17;;;;;;;4.33;3.02;;;;;;;5.10;78.87;99203.48;1561743;90;21274;-60
2022/11/19 09:01:24;;;;;;;2.95;2.15;;;;;;;5.14;78.83;99202.96;1561955;92;21266;-60
2022/11/19 09:04:31;;;;;;;3.12;1.87;;;;;;;5.16;78.64;99194.66;1561774;90;21298;-60
2022/11/19 09:07:38;;;;;;;2.37;1.52;;;;;;;5.22;78.73;99193.96;1561826;92;21294;-60
2022/11/19 09:10:45;;;;;;;2.95;1.90;;;;;;;5.30;78.79;99184.46;1561780;91;21293;-60
2022/11/19 09:13:52;;;;;;;2.62;2.08;;;;;;;5.38;78.81;99188.52;1561877;92;21230;-60
2022/11/19 09:16:58;;;;;;;2.27;1.72;;;;;;;5.44;78.75;99180.53;1561974;90;21338;-59
2022/11/19 09:20:04;;;;;;;2.00;1.50;;;;;;;5.49;78.79;99179.52;1562250;92;21293;-60
2022/11/19 09:23:12;;;;;;;4.33;2.30;;;;;;;5.55;78.74;99200.53;1561757;90;21270;-58
2022/11/19 09:26:23;;;;;;;5.17;3.30;;;;;;;5.55;78.62;99195.63;1561845;90;21349;-60
2022/11/19 09:29:30;;;;;;;3.47;2.20;;;;;;;5.54;78.50;99187.13;1572455;90;21324;-59
2022/11/19 09:32:36;;;;;;;2.33;1.72;;;;;;;5.56;78.59;99174.24;1633172;87;21233;-58
2022/11/19 09:35:43;;;;;;;2.80;1.77;;;;;;;5.59;78.71;99179.33;1635744;87;21257;-58
2022/11/19 09:38:52;;;;;;;2.02;1.52;;;;;;;5.55;78.47;99203.77;1636840;87;21246;-59
2022/11/19 09:42:21;;;;;;;3.33;1.80;;;;;;;5.57;78.66;99202.57;1636280;87;21261;-60
2022/11/19 09:45:38;;;;;;;4.75;2.45;;;;;;;5.64;78.80;99176.94;1631782;86;21801;-57
2022/11/19 09:48:45;;;;;;;3.02;1.98;;;;;;;5.76;78.94;99174.17;1625909;87;21232;-59
2022/11/19 09:51:56;;;;;;;2.22;1.60;;;;;;;5.91;78.99;99190.95;1622189;85;21291;-59
2022/11/19 09:55:03;;;;;;;2.67;2.05;;;;;;;6.00;78.84;99193.98;1645076;85;21276;-59
2022/11/19 09:58:09;;;;;;;2.85;2.05;;;;;;;6.03;78.76;99196.84;1644008;86;21243;-59
2022/11/19 10:01:24;;;;;;;4.12;2.40;;;;;;;6.05;78.66;99207.03;1644304;87;21822;-59
2022/11/19 10:04:32;;;;;;;3.35;2.37;;;;;;;6.11;78.71;99209.05;1644518;87;21287;-59
2022/11/19 10:08:06;;;;;;;3.25;2.15;;;;;;;6.19;78.73;99208.16;1645872;86;21624;-59
2022/11/19 10:11:35;;;;;;;3.70;2.65;;;;;;;6.24;78.69;99212.05;1648201;86;21219;-59
2022/11/19 10:14:57;;;;;;;4.85;3.30;;;;;;;6.34;78.80;99213.19;1651883;87;21219;-59
2022/11/19 10:18:20;;;;;;;4.83;3.20;;;;;;;6.41;78.75;99219.59;1624869;87;21226;-58
2022/11/19 10:21:34;;;;;;;17.92;9.50;;;;;;;6.50;78.79;99225.34;1639942;86;21283;-59
2022/11/19 10:24:57;;;;;;;12.47;7.10;;;;;;;6.59;78.82;99227.84;1629037;87;21721;-59
2022/11/19 10:28:22;;;;;;;8.18;5.58;;;;;;;6.66;78.72;99229.33;1649200;85;21218;-59
2022/11/19 10:31:44;;;;;;;6.83;4.47;;;;;;;6.74;78.68;99246.42;1650497;87;21243;-60
2022/11/19 10:34:51;;;;;;;4.20;2.87;;;;;;;6.79;78.67;99249.95;1651327;87;21590;-57
2022/11/19 10:38:03;;;;;;;8.45;4.95;;;;;;;6.87;78.67;99256.70;1652138;87;21219;-57
2022/11/19 10:41:18;;;;;;;15.80;9.15;;;;;;;6.93;78.69;99273.16;1651672;87;21235;-58
2022/11/19 10:44:45;;;;;;;15.65;9.80;;;;;;;7.00;78.75;99279.59;1644196;86;21232;-57
2022/11/19 10:47:56;;;;;;;15.25;9.05;;;;;;;7.05;78.79;99279.91;1650714;86;21612;-58
2022/11/19 10:51:05;;;;;;;15.20;8.73;;;;;;;7.12;78.79;99291.73;1651284;86;21821;-58
2022/11/19 10:54:15;;;;;;;14.83;10.85;;;;;;;7.15;78.80;99299.53;1627086;88;21314;-59
2022/11/19 10:57:24;;;;;;;22.52;13.13;;;;;;;7.21;78.82;99317.89;1625020;87;21816;-59
2022/11/19 11:00:30;;;;;;;18.82;11.70;;;;;;;7.25;78.80;99327.38;1624917;87;21311;-58
2022/11/19 11:04:15;;;;;;;12.20;10.00;;;;;;;7.25;78.75;99330.09;1624738;88;21638;-59
2022/11/19 11:07:21;;;;;;;22.45;11.68;;;;;;;7.24;78.71;99343.38;1624510;87;21855;-59
2022/11/19 11:10:36;;;;;;;19.17;10.05;;;;;;;7.24;78.78;99343.88;1624863;88;22163;-59
2022/11/19 11:17:12;;;;;;;10.60;5.80;;;;;;;7.26;78.80;99373.14;1571305;91;21785;-58
2022/11/19 11:20:32;;;;;;;8.30;5.10;;;;;;;7.18;78.75;99388.98;1575764;90;21287;-58
2022/11/19 11:23:38;;;;;;;12.30;7.83;;;;;;;7.09;78.86;99390.56;1627511;87;21547;-59
2022/11/19 11:26:47;;;;;;;9.85;6.08;;;;;;;7.01;78.98;99406.42;1593089;88;21266;-58
2022/11/19 11:29:53;;;;;;;9.38;6.10;;;;;;;6.95;79.15;99403.05;1625203;88;21291;-58
2022/11/19 11:32:59;;;;;;;7.22;5.12;;;;;;;6.89;79.22;99425.53;1591511;89;21818;-57
2022/11/19 11:36:14;;;;;;;7.90;5.95;;;;;;;6.80;79.34;99436.08;1617307;88;21264;-58
2022/11/19 11:39:37;;;;;;;7.37;5.72;;;;;;;6.78;79.48;99450.38;1638968;85;21219;-56
2022/11/19 11:42:44;;;;;;;7.22;5.20;;;;;;;6.77;79.55;99471.78;1652066;86;21306;-58
2022/11/19 11:45:52;;;;;;;7.78;5.97;;;;;;;6.72;79.58;99491.88;1652047;85;21807;-58
2022/11/19 11:48:59;;;;;;;9.68;7.28;;;;;;;6.66;79.60;99484.39;1651192;87;21279;-59
2022/11/19 11:52:25;;;;;;;13.38;8.73;;;;;;;6.61;79.58;99489.48;1650225;85;21303;-58
2022/11/19 11:55:37;;;;;;;9.83;7.12;;;;;;;6.56;79.65;99514.16;1604535;88;21260;-58
2022/11/19 11:58:44;;;;;;;11.17;6.90;;;;;;;6.52;79.68;99525.02;1563139;90;21232;-58
2022/11/19 12:01:53;;;;;;;9.85;6.85;;;;;;;6.50;79.71;99538.78;1605981;87;21273;-58
2022/11/19 12:05:00;;;;;;;12.35;6.72;;;;;;;6.44;79.70;99558.50;1597877;88;21378;-56
2022/11/19 12:08:26;;;;;;;11.75;7.03;;;;;;;6.41;79.71;99555.27;1580345;89;21257;-59
2022/11/19 12:11:56;;;;;;;7.35;5.28;;;;;;;6.38;79.76;99564.63;1594933;88;21289;-59
2022/11/19 12:15:14;;;;;;;11.50;6.95;;;;;;;6.38;79.82;99595.02;1607264;88;21623;-60
2022/11/19 12:18:36;;;;;;;10.13;6.65;;;;;;;6.33;79.74;99601.49;1605084;88;21538;-58
2022/11/19 12:21:51;;;;;;;9.80;6.42;;;;;;;6.24;79.68;99622.86;1616166;87;21262;-58
2022/11/19 12:25:20;;;;;;;9.73;6.35;;;;;;;6.15;79.69;99645.11;1604843;88;21254;-58
2022/11/19 12:28:37;;;;;;;10.10;6.08;;;;;;;6.11;79.74;99646.44;1604159;89;21249;-58
2022/11/19 12:32:14;;;;;;;11.12;7.20;;;;;;;6.08;79.75;99667.14;1604729;87;21416;-58
2022/11/19 12:35:51;;;;;;;9.05;5.30;;;;;;;6.00;79.68;99684.77;1595716;88;21317;-58
2022/11/19 12:39:17;;;;;;;32.80;16.77;;;;;;;5.91;79.67;99717.00;1594805;88;21248;-59
2022/11/19 12:43:05;;;;;;;15.63;10.80;;;;;;;5.81;79.62;99708.94;1603196;89;21244;-60
2022/11/19 12:46:31;;;;;;;11.95;8.05;;;;;;;5.74;79.56;99737.73;1603399;89;21278;-59
2022/11/19 12:49:53;;;;;;;8.65;5.70;;;;;;;5.68;79.57;99753.81;1604134;88;21290;-59
2022/11/19 12:53:15;;;;;;;10.03;5.97;;;;;;;5.55;79.47;99790.06;1605522;88;21817;-57
2022/11/19 12:56:43;;;;;;;11.90;7.33;;;;;;;5.30;79.23;99806.64;1651294;85;21243;-60
2022/11/19 13:00:26;;;;;;;8.03;5.15;;;;;;;5.10;79.17;99817.32;1618920;88;21596;-57
2022/11/19 13:04:00;;;;;;;12.75;6.25;;;;;;;4.85;79.01;99829.42;1618691;88;21809;-58
2022/11/19 13:07:14;;;;;;;11.78;6.58;;;;;;;4.60;78.96;99841.34;1618925;88;21264;-58
2022/11/19 13:10:31;;;;;;;9.13;6.05;;;;;;;4.44;78.96;99860.59;1619379;87;21316;-60
2022/11/19 13:13:39;;;;;;;7.85;4.75;;;;;;;4.27;78.91;99876.30;1604597;86;21571;-58
2022/11/19 13:16:48;;;;;;;8.18;5.22;;;;;;;4.14;78.94;99898.30;1669209;85;21785;-59
2022/11/19 13:19:58;;;;;;;10.35;6.83;;;;;;;4.03;78.97;99905.23;1648728;85;21240;-59
2022/11/19 13:23:07;;;;;;;13.90;7.65;;;;;;;3.94;79.04;99919.66;1676744;85;21230;-57
2022/11/19 13:26:25;;;;;;;10.70;6.25;;;;;;;3.91;79.13;99943.45;1676937;85;21260;-56
2022/11/19 13:29:51;;;;;;;10.45;6.70;;;;;;;3.84;79.16;99947.23;1678272;85;21280;-57
2022/11/19 13:33:29;;;;;;;10.72;5.92;;;;;;;3.75;79.15;99953.52;1676451;85;21224;-58
2022/11/19 13:36:44;;;;;;;7.10;5.08;;;;;;;3.74;79.32;99980.21;1677587;85;21733;-57
2022/11/19 13:40:02;;;;;;;9.53;6.90;;;;;;;3.71;79.33;99985.08;1676959;84;21220;-58
2022/11/19 13:46:37;;;;;;;13.87;8.80;;;;;;;3.60;79.32;100015.81;1650379;86;21243;-58
2022/11/19 13:49:52;;;;;;;8.63;6.12;;;;;;;3.56;79.38;100027.94;1649981;86;21943;-58
2022/11/19 13:53:07;;;;;;;9.15;6.35;;;;;;;3.54;79.43;100042.09;1650170;86;21592;-56
2022/11/19 13:56:14;;;;;;;7.97;5.67;;;;;;;3.52;79.45;100066.24;1648364;83;21227;-57
2022/11/19 13:59:42;;;;;;;7.20;4.65;;;;;;;3.48;79.40;100065.66;1586030;89;21262;-57
2022/11/19 14:03:31;;;;;;;5.92;4.08;;;;;;;3.41;79.38;100086.12;1638379;86;21637;-58
2022/11/19 14:07:08;;;;;;;8.13;4.40;;;;;;;3.35;79.41;100077.70;1644662;87;21236;-58
2022/11/19 14:10:45;;;;;;;7.53;4.30;;;;;;;3.33;79.46;100088.66;1651032;85;21391;-58
2022/11/19 14:28:00;;;;;;;5.50;3.67;;;;;;;3.11;79.35;100106.44;1652425;86;21776;-58
2022/11/19 14:31:09;;;;;;;4.75;3.30;;;;;;;3.03;79.35;100134.65;1651606;87;21227;-58
2022/11/19 14:34:21;;;;;;;5.85;4.12;;;;;;;2.99;79.39;100152.14;1636533;87;21248;-58
2022/11/19 14:37:33;;;;;;;6.58;4.00;;;;;;;2.96;79.36;100151.06;1651580;86;21271;-57
2022/11/19 14:40:39;;;;;;;7.33;4.12;;;;;;;2.92;79.37;100155.00;1651631;85;21290;-58
2022/11/19 14:44:07;;;;;;;7.83;4.45;;;;;;;2.89;79.36;100140.41;1651746;87;21266;-58
2022/11/19 14:47:34;;;;;;;6.28;3.70;;;;;;;2.87;79.43;100156.76;1652850;85;21294;-58
2022/11/19 14:50:41;;;;;;;5.20;3.40;;;;;;;2.84;79.38;100171.89;1652730;86;21803;-58
2022/11/19 14:54:08;;;;;;;6.10;4.20;;;;;;;2.78;79.38;100167.50;1652403;87;21258;-57
2022/11/19 14:57:41;;;;;;;5.35;3.52;;;;;;;2.72;79.41;100181.55;1642952;84;21236;-57
2022/11/19 15:00:50;;;;;;;5.58;3.87;;;;;;;2.64;79.43;100202.96;1637463;87;21220;-58
2022/11/19 15:03:59;;;;;;;6.92;4.67;;;;;;;2.58;79.49;100200.79;1636044;86;21816;-57
2022/11/19 15:07:06;;;;;;;4.60;3.65;;;;;;;2.53;79.50;100217.88;1632635;86;21236;-58
2022/11/19 15:10:34;;;;;;;7.87;5.22;;;;;;;2.53;79.57;100232.73;1636416;87;21228;-58
2022/11/19 15:13:46;;;;;;;7.75;5.37;;;;;;;2.52;79.61;100240.48;1637195;87;21200;-58
2022/11/19 15:16:53;;;;;;;8.40;5.60;;;;;;;2.52;79.61;100265.63;1647251;87;21235;-58
2022/11/19 15:20:04;;;;;;;5.83;4.12;;;;;;;2.52;79.61;100270.20;1635311;87;21224;-58
2022/11/19 15:23:25;;;;;;;8.10;4.70;;;;;;;2.55;79.64;100269.94;1636528;87;21251;-58
2022/11/19 15:26:44;;;;;;;7.12;5.15;;;;;;;2.58;79.71;100266.98;1630020;87;21478;-59
2022/11/19 15:30:06;;;;;;;6.47;4.53;;;;;;;2.64;79.72;100279.97;1636393;87;21229;-63
2022/11/19 15:33:45;;;;;;;7.72;5.35;;;;;;;2.67;79.71;100303.55;1636154;87;21303;-57
2022/11/19 15:36:57;;;;;;;15.38;4.65;;;;;;;2.70;79.72;100324.03;1636594;87;21844;-58
2022/11/19 15:40:04;;;;;;;7.12;4.40;;;;;;;2.72;79.68;100354.50;1636477;86;21745;-58
2022/11/19 15:43:24;;;;;;;6.55;4.58;;;;;;;2.71;79.66;100364.96;1636794;87;21272;-59